CheckWX is a tool to help pilots better visualize weather data.  It is not intended as a substitute for an official pre-flight weather briefing.

09:43:08 UTC

CYYU TAF
Kapuskasing Airport
Kapuskasing, Canada
TAF CYYU 200741Z 2008/2020 22008KT P6SM SKC FM201700 23010KT P6SM SCT050 BKN200 RMK NXT FCST BY 201400Z

Feb-20@
08:00 UTC

Feb-20 @ 08:00 UTC

Feb-20@
17:00 UTC

Feb-20 @ 17:00 UTC

TAF CYYU 200741Z 2008/2020 22008KT P6SM SKC
Wind
  • 220° at 8 KTS
Visibility
10,000+ meters
Cloud Levels
  • Clear skies

Feb-20@
17:00 UTC

Feb-20 @ 17:00 UTC

Feb-20@
20:00 UTC

Feb-20 @ 20:00 UTC

FM201700 23010KT P6SM SCT050 BKN200 RMK NXT FCST BY 201400Z

From

FromStandard forecast or significant change

Wind
  • 230° at 10 KTS
Visibility
10,000+ meters
Cloud Levels
  • Scattered at 5,000' AGL
  • Broken at 20,000' AGL